sensor_id;sensor_type;location;lat;lon;timestamp;temperature;humidity
21712;DHT22;11017;53.552;9.910;2023-02-27T00:00:49;2.10;99.90
21712;DHT22;11017;53.552;9.910;2023-02-27T00:03:17;2.00;99.90
21712;DHT22;11017;53.552;9.910;2023-02-27T00:05:44;2.10;99.90
21712;DHT22;11017;53.552;9.910;2023-02-27T00:08:11;2.10;99.90
21712;DHT22;11017;53.552;9.910;2023-02-27T00:10:37;2.10;99.90
21712;DHT22;11017;53.552;9.910;2023-02-27T00:13:05;2.20;99.90
21712;DHT22;11017;53.552;9.910;2023-02-27T00:15:33;2.10;99.90
21712;DHT22;11017;53.552;9.910;2023-02-27T00:18:01;2.10;99.90
21712;DHT22;11017;53.552;9.910;2023-02-27T00:20:28;2.10;99.90
21712;DHT22;11017;53.552;9.910;2023-02-27T00:22:56;2.10;99.90
21712;DHT22;11017;53.552;9.910;2023-02-27T00:25:23;2.10;99.90
21712;DHT22;11017;53.552;9.910;2023-02-27T00:27:50;2.00;99.90
21712;DHT22;11017;53.552;9.910;2023-02-27T00:30:18;1.90;99.90
21712;DHT22;11017;53.552;9.910;2023-02-27T00:32:46;1.80;99.90
21712;DHT22;11017;53.552;9.910;2023-02-27T00:35:13;1.80;99.90
21712;DHT22;11017;53.552;9.910;2023-02-27T00:37:40;1.70;99.90
21712;DHT22;11017;53.552;9.910;2023-02-27T00:40:08;1.70;99.90
21712;DHT22;11017;53.552;9.910;2023-02-27T00:42:36;1.70;99.90
21712;DHT22;11017;53.552;9.910;2023-02-27T00:45:03;1.80;99.90
21712;DHT22;11017;53.552;9.910;2023-02-27T00:47:30;1.70;99.90
21712;DHT22;11017;53.552;9.910;2023-02-27T00:49:59;1.70;99.90
21712;DHT22;11017;53.552;9.910;2023-02-27T00:52:26;1.80;99.90
21712;DHT22;11017;53.552;9.910;2023-02-27T00:54:53;1.70;99.90
21712;DHT22;11017;53.552;9.910;2023-02-27T00:57:20;1.60;99.90
21712;DHT22;11017;53.552;9.910;2023-02-27T00:59:47;1.80;99.90
21712;DHT22;11017;53.552;9.910;2023-02-27T01:02:14;1.90;99.90
21712;DHT22;11017;53.552;9.910;2023-02-27T01:04:41;2.00;99.90
21712;DHT22;11017;53.552;9.910;2023-02-27T01:07:09;2.00;99.90
21712;DHT22;11017;53.552;9.910;2023-02-27T01:09:36;1.90;99.90
21712;DHT22;11017;53.552;9.910;2023-02-27T01:12:04;1.90;99.90
21712;DHT22;11017;53.552;9.910;2023-02-27T01:14:31;1.80;99.90
21712;DHT22;11017;53.552;9.910;2023-02-27T01:16:57;1.90;99.90
21712;DHT22;11017;53.552;9.910;2023-02-27T01:19:25;1.90;99.90
21712;DHT22;11017;53.552;9.910;2023-02-27T01:21:52;2.00;99.90
21712;DHT22;11017;53.552;9.910;2023-02-27T01:24:20;2.00;99.90
21712;DHT22;11017;53.552;9.910;2023-02-27T01:26:47;2.10;99.90
21712;DHT22;11017;53.552;9.910;2023-02-27T01:29:14;2.10;99.90
21712;DHT22;11017;53.552;9.910;2023-02-27T01:31:41;2.00;99.90
21712;DHT22;11017;53.552;9.910;2023-02-27T01:34:08;1.80;99.90
21712;DHT22;11017;53.552;9.910;2023-02-27T01:36:35;1.60;99.90
21712;DHT22;11017;53.552;9.910;2023-02-27T01:39:02;1.60;99.90
21712;DHT22;11017;53.552;9.910;2023-02-27T01:41:30;1.60;99.90
21712;DHT22;11017;53.552;9.910;2023-02-27T01:44:00;1.60;99.90
21712;DHT22;11017;53.552;9.910;2023-02-27T01:46:28;1.70;99.90
21712;DHT22;11017;53.552;9.910;2023-02-27T01:48:59;1.70;99.90
21712;DHT22;11017;53.552;9.910;2023-02-27T01:51:31;1.70;99.90
21712;DHT22;11017;53.552;9.910;2023-02-27T01:53:59;1.70;99.90
21712;DHT22;11017;53.552;9.910;2023-02-27T01:56:28;1.60;99.90
21712;DHT22;11017;53.552;9.910;2023-02-27T01:58:58;1.50;99.90
21712;DHT22;11017;53.552;9.910;2023-02-27T02:01:28;1.50;99.90
21712;DHT22;11017;53.552;9.910;2023-02-27T02:03:59;1.50;99.90
21712;DHT22;11017;53.552;9.910;2023-02-27T02:06:29;1.40;99.90
21712;DHT22;11017;53.552;9.910;2023-02-27T02:08:57;1.50;99.90
21712;DHT22;11017;53.552;9.910;2023-02-27T02:11:25;1.50;99.90
21712;DHT22;11017;53.552;9.910;2023-02-27T02:13:58;1.40;99.90
21712;DHT22;11017;53.552;9.910;2023-02-27T02:19:45;1.50;99.90
21712;DHT22;11017;53.552;9.910;2023-02-27T02:22:37;1.50;99.90
21712;DHT22;11017;53.552;9.910;2023-02-27T02:25:30;1.70;99.90
21712;DHT22;11017;53.552;9.910;2023-02-27T02:28:08;1.70;99.90
21712;DHT22;11017;53.552;9.910;2023-02-27T02:30:54;1.70;99.90
21712;DHT22;11017;53.552;9.910;2023-02-27T02:33:43;1.70;99.90
21712;DHT22;11017;53.552;9.910;2023-02-27T02:42:20;1.50;99.90
21712;DHT22;11017;53.552;9.910;2023-02-27T02:44:55;1.50;99.90
21712;DHT22;11017;53.552;9.910;2023-02-27T02:47:32;1.50;99.90
21712;DHT22;11017;53.552;9.910;2023-02-27T02:50:05;1.60;99.90
21712;DHT22;11017;53.552;9.910;2023-02-27T02:52:44;1.70;99.90
21712;DHT22;11017;53.552;9.910;2023-02-27T02:55:18;1.70;99.90
21712;DHT22;11017;53.552;9.910;2023-02-27T02:57:50;1.60;99.90
21712;DHT22;11017;53.552;9.910;2023-02-27T03:00:21;1.60;99.90
21712;DHT22;11017;53.552;9.910;2023-02-27T03:02:52;1.50;99.90
21712;DHT22;11017;53.552;9.910;2023-02-27T03:05:24;1.50;99.90
21712;DHT22;11017;53.552;9.910;2023-02-27T03:07:55;1.30;99.90
21712;DHT22;11017;53.552;9.910;2023-02-27T03:10:27;1.30;99.90
21712;DHT22;11017;53.552;9.910;2023-02-27T03:12:59;1.40;99.90
21712;DHT22;11017;53.552;9.910;2023-02-27T03:15:29;1.50;99.90
21712;DHT22;11017;53.552;9.910;2023-02-27T03:18:00;1.40;99.90
21712;DHT22;11017;53.552;9.910;2023-02-27T03:20:34;1.20;99.90
21712;DHT22;11017;53.552;9.910;2023-02-27T03:23:07;1.20;99.90
21712;DHT22;11017;53.552;9.910;2023-02-27T03:25:36;1.30;99.90
21712;DHT22;11017;53.552;9.910;2023-02-27T03:28:07;1.30;99.90
21712;DHT22;11017;53.552;9.910;2023-02-27T03:30:38;1.20;99.90
21712;DHT22;11017;53.552;9.910;2023-02-27T03:33:09;1.20;99.90
21712;DHT22;11017;53.552;9.910;2023-02-27T03:35:43;1.20;99.90
21712;DHT22;11017;53.552;9.910;2023-02-27T03:38:17;1.30;99.90
21712;DHT22;11017;53.552;9.910;2023-02-27T03:40:53;1.20;99.90
21712;DHT22;11017;53.552;9.910;2023-02-27T03:43:28;1.30;99.90
21712;DHT22;11017;53.552;9.910;2023-02-27T03:46:02;1.40;99.90
21712;DHT22;11017;53.552;9.910;2023-02-27T03:48:33;1.40;99.90
21712;DHT22;11017;53.552;9.910;2023-02-27T03:51:00;1.30;99.90
21712;DHT22;11017;53.552;9.910;2023-02-27T03:53:35;1.20;99.90
21712;DHT22;11017;53.552;9.910;2023-02-27T03:56:07;1.10;99.90
21712;DHT22;11017;53.552;9.910;2023-02-27T03:58:35;1.00;99.90
21712;DHT22;11017;53.552;9.910;2023-02-27T04:01:02;1.00;99.90
21712;DHT22;11017;53.552;9.910;2023-02-27T04:03:31;1.10;99.90
21712;DHT22;11017;53.552;9.910;2023-02-27T04:05:59;1.30;99.90
21712;DHT22;11017;53.552;9.910;2023-02-27T04:08:54;1.40;99.90
21712;DHT22;11017;53.552;9.910;2023-02-27T04:11:34;1.50;99.90
21712;DHT22;11017;53.552;9.910;2023-02-27T04:14:29;1.50;99.90
21712;DHT22;11017;53.552;9.910;2023-02-27T04:17:09;1.60;99.90
21712;DHT22;11017;53.552;9.910;2023-02-27T04:20:11;1.70;99.90
21712;DHT22;11017;53.552;9.910;2023-02-27T04:22:43;1.70;99.90
21712;DHT22;11017;53.552;9.910;2023-02-27T04:25:38;1.80;99.90
21712;DHT22;11017;53.552;9.910;2023-02-27T04:28:13;1.80;99.90
21712;DHT22;11017;53.552;9.910;2023-02-27T04:30:53;1.80;99.90
21712;DHT22;11017;53.552;9.910;2023-02-27T04:33:30;1.80;99.90
21712;DHT22;11017;53.552;9.910;2023-02-27T04:36:02;1.80;99.90
21712;DHT22;11017;53.552;9.910;2023-02-27T04:38:35;1.80;99.90
21712;DHT22;11017;53.552;9.910;2023-02-27T04:41:07;1.80;99.90
21712;DHT22;11017;53.552;9.910;2023-02-27T04:43:38;1.70;99.90
21712;DHT22;11017;53.552;9.910;2023-02-27T04:46:08;1.70;99.90
21712;DHT22;11017;53.552;9.910;2023-02-27T04:48:39;1.70;99.90
21712;DHT22;11017;53.552;9.910;2023-02-27T04:51:11;1.60;99.90
21712;DHT22;11017;53.552;9.910;2023-02-27T04:53:44;1.50;99.90
21712;DHT22;11017;53.552;9.910;2023-02-27T04:56:14;1.60;99.90
21712;DHT22;11017;53.552;9.910;2023-02-27T04:58:47;1.80;99.90
21712;DHT22;11017;53.552;9.910;2023-02-27T05:01:21;1.70;99.90
21712;DHT22;11017;53.552;9.910;2023-02-27T05:03:51;1.70;99.90
21712;DHT22;11017;53.552;9.910;2023-02-27T05:06:24;1.60;99.90
21712;DHT22;11017;53.552;9.910;2023-02-27T05:08:55;1.60;99.90
21712;DHT22;11017;53.552;9.910;2023-02-27T05:11:28;1.60;99.90
21712;DHT22;11017;53.552;9.910;2023-02-27T05:14:00;1.60;99.90
21712;DHT22;11017;53.552;9.910;2023-02-27T05:16:31;1.70;99.90
21712;DHT22;11017;53.552;9.910;2023-02-27T05:19:02;1.80;99.90
21712;DHT22;11017;53.552;9.910;2023-02-27T05:21:32;1.80;99.90
21712;DHT22;11017;53.552;9.910;2023-02-27T05:24:10;1.80;99.90
21712;DHT22;11017;53.552;9.910;2023-02-27T05:26:56;1.80;99.90
21712;DHT22;11017;53.552;9.910;2023-02-27T05:29:32;1.80;99.90
21712;DHT22;11017;53.552;9.910;2023-02-27T05:32:06;1.80;99.90
21712;DHT22;11017;53.552;9.910;2023-02-27T05:34:42;1.80;99.90
21712;DHT22;11017;53.552;9.910;2023-02-27T05:37:12;1.80;99.90
21712;DHT22;11017;53.552;9.910;2023-02-27T05:39:41;1.80;99.90
21712;DHT22;11017;53.552;9.910;2023-02-27T05:42:15;1.80;99.90
21712;DHT22;11017;53.552;9.910;2023-02-27T05:44:48;1.70;99.90
21712;DHT22;11017;53.552;9.910;2023-02-27T05:47:17;1.70;99.90
21712;DHT22;11017;53.552;9.910;2023-02-27T05:49:48;1.70;99.90
21712;DHT22;11017;53.552;9.910;2023-02-27T05:52:21;1.70;99.90
21712;DHT22;11017;53.552;9.910;2023-02-27T05:54:52;1.80;99.90
21712;DHT22;11017;53.552;9.910;2023-02-27T05:57:26;1.80;99.90
21712;DHT22;11017;53.552;9.910;2023-02-27T06:00:00;1.70;99.90
21712;DHT22;11017;53.552;9.910;2023-02-27T06:02:29;1.70;99.90
21712;DHT22;11017;53.552;9.910;2023-02-27T06:04:56;1.70;99.90
21712;DHT22;11017;53.552;9.910;2023-02-27T06:07:23;1.60;99.90
21712;DHT22;11017;53.552;9.910;2023-02-27T06:09:50;1.60;99.90
21712;DHT22;11017;53.552;9.910;2023-02-27T06:12:17;1.70;99.90
21712;DHT22;11017;53.552;9.910;2023-02-27T06:14:44;1.60;99.90
21712;DHT22;11017;53.552;9.910;2023-02-27T06:17:12;1.70;99.90
21712;DHT22;11017;53.552;9.910;2023-02-27T06:19:39;1.80;99.90
21712;DHT22;11017;53.552;9.910;2023-02-27T06:22:07;1.70;99.90
21712;DHT22;11017;53.552;9.910;2023-02-27T06:24:34;1.70;99.90
21712;DHT22;11017;53.552;9.910;2023-02-27T06:27:01;1.70;99.90
21712;DHT22;11017;53.552;9.910;2023-02-27T06:29:28;1.70;99.90
21712;DHT22;11017;53.552;9.910;2023-02-27T06:31:55;1.80;99.90
21712;DHT22;11017;53.552;9.910;2023-02-27T06:34:24;1.80;99.90
21712;DHT22;11017;53.552;9.910;2023-02-27T06:36:51;1.80;99.90
21712;DHT22;11017;53.552;9.910;2023-02-27T06:39:18;1.80;99.90
21712;DHT22;11017;53.552;9.910;2023-02-27T06:41:44;1.80;99.90
21712;DHT22;11017;53.552;9.910;2023-02-27T06:44:11;1.80;99.90
21712;DHT22;11017;53.552;9.910;2023-02-27T06:46:38;1.80;99.90
21712;DHT22;11017;53.552;9.910;2023-02-27T06:49:05;1.80;99.90
21712;DHT22;11017;53.552;9.910;2023-02-27T06:51:33;1.80;99.90
21712;DHT22;11017;53.552;9.910;2023-02-27T06:54:00;1.90;99.90
21712;DHT22;11017;53.552;9.910;2023-02-27T06:56:27;2.00;99.90
21712;DHT22;11017;53.552;9.910;2023-02-27T06:58:54;2.00;99.90
21712;DHT22;11017;53.552;9.910;2023-02-27T07:01:21;1.90;99.90
21712;DHT22;11017;53.552;9.910;2023-02-27T07:03:49;1.80;99.90
21712;DHT22;11017;53.552;9.910;2023-02-27T07:06:16;2.00;99.90
21712;DHT22;11017;53.552;9.910;2023-02-27T07:08:44;2.00;99.90
21712;DHT22;11017;53.552;9.910;2023-02-27T07:11:11;2.00;99.90
21712;DHT22;11017;53.552;9.910;2023-02-27T07:13:38;2.00;99.90
21712;DHT22;11017;53.552;9.910;2023-02-27T07:16:06;1.70;99.90
21712;DHT22;11017;53.552;9.910;2023-02-27T07:18:33;1.80;99.90
21712;DHT22;11017;53.552;9.910;2023-02-27T07:21:00;2.00;99.90
21712;DHT22;11017;53.552;9.910;2023-02-27T07:23:26;2.20;99.90
21712;DHT22;11017;53.552;9.910;2023-02-27T07:25:55;2.20;99.90
21712;DHT22;11017;53.552;9.910;2023-02-27T07:28:22;2.30;99.90
21712;DHT22;11017;53.552;9.910;2023-02-27T07:30:49;2.20;99.90
21712;DHT22;11017;53.552;9.910;2023-02-27T07:33:18;2.30;99.90
21712;DHT22;11017;53.552;9.910;2023-02-27T07:35:45;2.30;99.90
21712;DHT22;11017;53.552;9.910;2023-02-27T07:38:12;2.40;99.90
21712;DHT22;11017;53.552;9.910;2023-02-27T07:40:39;2.50;99.90
21712;DHT22;11017;53.552;9.910;2023-02-27T07:43:07;2.60;99.90
21712;DHT22;11017;53.552;9.910;2023-02-27T07:45:34;2.50;99.90
21712;DHT22;11017;53.552;9.910;2023-02-27T07:48:01;2.60;99.90
21712;DHT22;11017;53.552;9.910;2023-02-27T07:50:28;2.50;99.90
21712;DHT22;11017;53.552;9.910;2023-02-27T07:52:55;2.50;99.90
21712;DHT22;11017;53.552;9.910;2023-02-27T07:55:22;2.70;99.90
21712;DHT22;11017;53.552;9.910;2023-02-27T07:57:49;2.80;99.90
21712;DHT22;11017;53.552;9.910;2023-02-27T08:00:18;2.90;99.90
21712;DHT22;11017;53.552;9.910;2023-02-27T08:02:46;3.10;99.90
21712;DHT22;11017;53.552;9.910;2023-02-27T08:05:13;3.20;99.90
21712;DHT22;11017;53.552;9.910;2023-02-27T08:07:40;3.40;99.90
21712;DHT22;11017;53.552;9.910;2023-02-27T08:10:08;3.40;99.90
21712;DHT22;11017;53.552;9.910;2023-02-27T08:12:35;3.60;99.90
21712;DHT22;11017;53.552;9.910;2023-02-27T08:15:04;3.80;99.90
21712;DHT22;11017;53.552;9.910;2023-02-27T08:17:33;4.50;99.90
21712;DHT22;11017;53.552;9.910;2023-02-27T08:20:00;5.70;99.90
21712;DHT22;11017;53.552;9.910;2023-02-27T08:22:28;7.20;99.90
21712;DHT22;11017;53.552;9.910;2023-02-27T08:24:55;8.50;99.90
21712;DHT22;11017;53.552;9.910;2023-02-27T08:27:22;10.20;99.90
21712;DHT22;11017;53.552;9.910;2023-02-27T08:29:49;11.30;99.90
21712;DHT22;11017;53.552;9.910;2023-02-27T08:32:16;12.50;99.90
21712;DHT22;11017;53.552;9.910;2023-02-27T08:34:44;12.80;99.90
21712;DHT22;11017;53.552;9.910;2023-02-27T08:37:11;13.50;99.90
21712;DHT22;11017;53.552;9.910;2023-02-27T08:39:38;13.90;99.90
21712;DHT22;11017;53.552;9.910;2023-02-27T08:42:05;14.60;99.90
21712;DHT22;11017;53.552;9.910;2023-02-27T08:44:32;14.20;99.90
21712;DHT22;11017;53.552;9.910;2023-02-27T08:46:59;14.70;99.90
21712;DHT22;11017;53.552;9.910;2023-02-27T08:49:26;14.60;99.90
21712;DHT22;11017;53.552;9.910;2023-02-27T08:51:54;15.30;99.90
21712;DHT22;11017;53.552;9.910;2023-02-27T08:54:21;15.40;99.90
21712;DHT22;11017;53.552;9.910;2023-02-27T08:56:48;15.70;99.90
21712;DHT22;11017;53.552;9.910;2023-02-27T08:59:15;15.40;99.90
21712;DHT22;11017;53.552;9.910;2023-02-27T09:01:42;14.50;99.90
21712;DHT22;11017;53.552;9.910;2023-02-27T09:04:09;14.30;99.90
21712;DHT22;11017;53.552;9.910;2023-02-27T09:06:37;14.40;99.90
21712;DHT22;11017;53.552;9.910;2023-02-27T09:09:05;15.20;99.90
21712;DHT22;11017;53.552;9.910;2023-02-27T09:11:32;16.40;99.90
21712;DHT22;11017;53.552;9.910;2023-02-27T09:13:59;17.40;99.90
21712;DHT22;11017;53.552;9.910;2023-02-27T09:16:26;18.10;98.10
21712;DHT22;11017;53.552;9.910;2023-02-27T09:18:53;18.80;96.20
21712;DHT22;11017;53.552;9.910;2023-02-27T09:21:20;18.80;93.40
21712;DHT22;11017;53.552;9.910;2023-02-27T09:23:48;18.60;92.00
21712;DHT22;11017;53.552;9.910;2023-02-27T09:26:16;17.60;92.60
21712;DHT22;11017;53.552;9.910;2023-02-27T09:28:43;18.20;92.20
21712;DHT22;11017;53.552;9.910;2023-02-27T09:31:10;18.60;89.30
21712;DHT22;11017;53.552;9.910;2023-02-27T09:33:38;17.60;90.20
21712;DHT22;11017;53.552;9.910;2023-02-27T09:36:06;18.30;90.00
21712;DHT22;11017;53.552;9.910;2023-02-27T09:38:34;18.00;90.00
21712;DHT22;11017;53.552;9.910;2023-02-27T09:41:02;17.50;87.30
21712;DHT22;11017;53.552;9.910;2023-02-27T09:43:35;17.50;86.10
21712;DHT22;11017;53.552;9.910;2023-02-27T09:46:05;17.30;86.60
21712;DHT22;11017;53.552;9.910;2023-02-27T09:48:37;16.70;84.60
21712;DHT22;11017;53.552;9.910;2023-02-27T09:51:05;16.60;86.00
21712;DHT22;11017;53.552;9.910;2023-02-27T09:53:35;18.20;84.10
21712;DHT22;11017;53.552;9.910;2023-02-27T09:56:07;19.60;81.50
21712;DHT22;11017;53.552;9.910;2023-02-27T09:58:44;19.20;78.20
21712;DHT22;11017;53.552;9.910;2023-02-27T10:01:18;18.00;78.30
21712;DHT22;11017;53.552;9.910;2023-02-27T10:03:58;18.60;75.80
21712;DHT22;11017;53.552;9.910;2023-02-27T10:06:35;18.10;73.60
21712;DHT22;11017;53.552;9.910;2023-02-27T10:09:11;18.30;72.40
21712;DHT22;11017;53.552;9.910;2023-02-27T10:11:48;16.60;71.90
21712;DHT22;11017;53.552;9.910;2023-02-27T10:14:29;15.60;73.50
21712;DHT22;11017;53.552;9.910;2023-02-27T10:16:58;14.90;74.30
21712;DHT22;11017;53.552;9.910;2023-02-27T10:19:30;16.00;73.70
21712;DHT22;11017;53.552;9.910;2023-02-27T10:21:59;16.40;73.20
21712;DHT22;11017;53.552;9.910;2023-02-27T10:24:32;16.30;72.20
21712;DHT22;11017;53.552;9.910;2023-02-27T10:27:01;17.00;72.10
21712;DHT22;11017;53.552;9.910;2023-02-27T10:29:33;16.90;70.50
21712;DHT22;11017;53.552;9.910;2023-02-27T10:32:03;17.30;70.10
21712;DHT22;11017;53.552;9.910;2023-02-27T10:34:32;18.10;69.90
21712;DHT22;11017;53.552;9.910;2023-02-27T10:37:01;18.00;70.70
21712;DHT22;11017;53.552;9.910;2023-02-27T10:39:29;17.80;71.10
21712;DHT22;11017;53.552;9.910;2023-02-27T10:42:01;17.70;68.40
21712;DHT22;11017;53.552;9.910;2023-02-27T10:44:29;16.80;68.80
21712;DHT22;11017;53.552;9.910;2023-02-27T10:46:58;15.40;70.80
21712;DHT22;11017;53.552;9.910;2023-02-27T10:49:24;14.70;73.70
21712;DHT22;11017;53.552;9.910;2023-02-27T10:52:07;15.10;73.70
21712;DHT22;11017;53.552;9.910;2023-02-27T10:54:35;14.60;73.30
21712;DHT22;11017;53.552;9.910;2023-02-27T10:57:06;14.70;75.30
21712;DHT22;11017;53.552;9.910;2023-02-27T10:59:42;15.80;74.20
21712;DHT22;11017;53.552;9.910;2023-02-27T11:02:22;15.10;73.40
21712;DHT22;11017;53.552;9.910;2023-02-27T11:04:52;14.60;73.80
21712;DHT22;11017;53.552;9.910;2023-02-27T11:07:30;13.70;74.80
21712;DHT22;11017;53.552;9.910;2023-02-27T11:10:00;13.70;74.60
21712;DHT22;11017;53.552;9.910;2023-02-27T11:12:30;13.30;76.00
21712;DHT22;11017;53.552;9.910;2023-02-27T11:14:59;12.80;77.50
21712;DHT22;11017;53.552;9.910;2023-02-27T11:17:29;12.90;78.10
21712;DHT22;11017;53.552;9.910;2023-02-27T11:19:57;12.10;78.60
21712;DHT22;11017;53.552;9.910;2023-02-27T11:22:26;12.00;79.80
21712;DHT22;11017;53.552;9.910;2023-02-27T11:25:17;12.60;80.90
21712;DHT22;11017;53.552;9.910;2023-02-27T11:27:44;13.20;81.40
21712;DHT22;11017;53.552;9.910;2023-02-27T11:30:21;13.70;80.40
21712;DHT22;11017;53.552;9.910;2023-02-27T11:32:51;14.30;78.10
21712;DHT22;11017;53.552;9.910;2023-02-27T11:35:22;13.60;77.80
21712;DHT22;11017;53.552;9.910;2023-02-27T11:37:51;13.20;78.80
21712;DHT22;11017;53.552;9.910;2023-02-27T11:40:20;13.00;79.00
21712;DHT22;11017;53.552;9.910;2023-02-27T11:42:49;13.10;79.00
21712;DHT22;11017;53.552;9.910;2023-02-27T11:45:29;13.10;78.80
21712;DHT22;11017;53.552;9.910;2023-02-27T11:48:01;12.70;79.60
21712;DHT22;11017;53.552;9.910;2023-02-27T11:50:51;12.60;79.90
21712;DHT22;11017;53.552;9.910;2023-02-27T11:53:40;12.40;80.20
21712;DHT22;11017;53.552;9.910;2023-02-27T11:56:13;12.00;80.80
21712;DHT22;11017;53.552;9.910;2023-02-27T11:58:47;12.10;81.00
21712;DHT22;11017;53.552;9.910;2023-02-27T12:01:20;12.10;81.10
21712;DHT22;11017;53.552;9.910;2023-02-27T12:03:55;12.50;81.10
21712;DHT22;11017;53.552;9.910;2023-02-27T12:06:29;12.00;80.00
21712;DHT22;11017;53.552;9.910;2023-02-27T12:09:01;12.00;81.70
21712;DHT22;11017;53.552;9.910;2023-02-27T12:11:31;13.20;81.10
21712;DHT22;11017;53.552;9.910;2023-02-27T12:14:03;13.60;79.50
21712;DHT22;11017;53.552;9.910;2023-02-27T12:16:38;13.30;79.20
21712;DHT22;11017;53.552;9.910;2023-02-27T12:19:14;13.80;79.90
21712;DHT22;11017;53.552;9.910;2023-02-27T12:21:46;15.40;77.50
21712;DHT22;11017;53.552;9.910;2023-02-27T12:24:18;15.80;75.70
21712;DHT22;11017;53.552;9.910;2023-02-27T12:26:51;15.20;77.10
21712;DHT22;11017;53.552;9.910;2023-02-27T12:29:26;16.50;75.80
21712;DHT22;11017;53.552;9.910;2023-02-27T12:31:57;16.10;75.10
21712;DHT22;11017;53.552;9.910;2023-02-27T12:34:30;15.20;74.50
21712;DHT22;11017;53.552;9.910;2023-02-27T12:37:02;15.20;75.30
21712;DHT22;11017;53.552;9.910;2023-02-27T12:39:29;15.60;75.80
21712;DHT22;11017;53.552;9.910;2023-02-27T12:42:22;16.40;74.40
21712;DHT22;11017;53.552;9.910;2023-02-27T12:47:47;17.00;73.90
21712;DHT22;11017;53.552;9.910;2023-02-27T12:50:20;17.80;74.70
21712;DHT22;11017;53.552;9.910;2023-02-27T12:52:58;17.70;73.80
21712;DHT22;11017;53.552;9.910;2023-02-27T12:55:30;19.10;73.30
21712;DHT22;11017;53.552;9.910;2023-02-27T12:58:14;18.30;72.30
21712;DHT22;11017;53.552;9.910;2023-02-27T13:00:47;17.80;73.00
21712;DHT22;11017;53.552;9.910;2023-02-27T13:03:20;18.40;72.10
21712;DHT22;11017;53.552;9.910;2023-02-27T13:05:58;17.00;72.60
21712;DHT22;11017;53.552;9.910;2023-02-27T13:08:47;17.30;75.70
21712;DHT22;11017;53.552;9.910;2023-02-27T13:11:23;17.70;76.10
21712;DHT22;11017;53.552;9.910;2023-02-27T13:13:55;18.20;72.60
21712;DHT22;11017;53.552;9.910;2023-02-27T13:16:29;17.40;71.30
21712;DHT22;11017;53.552;9.910;2023-02-27T13:19:03;15.90;71.70
21712;DHT22;11017;53.552;9.910;2023-02-27T13:21:37;15.60;72.60
21712;DHT22;11017;53.552;9.910;2023-02-27T13:24:21;16.90;69.90
21712;DHT22;11017;53.552;9.910;2023-02-27T13:26:55;17.50;68.80
21712;DHT22;11017;53.552;9.910;2023-02-27T13:29:26;18.80;66.70
21712;DHT22;11017;53.552;9.910;2023-02-27T13:32:00;20.30;64.50
21712;DHT22;11017;53.552;9.910;2023-02-27T13:34:33;20.10;61.80
21712;DHT22;11017;53.552;9.910;2023-02-27T13:37:05;18.70;63.10
21712;DHT22;11017;53.552;9.910;2023-02-27T13:39:50;19.30;61.60
21712;DHT22;11017;53.552;9.910;2023-02-27T13:42:55;18.20;61.50
21712;DHT22;11017;53.552;9.910;2023-02-27T13:48:40;19.80;62.70
21712;DHT22;11017;53.552;9.910;2023-02-27T13:51:10;20.50;59.70
21712;DHT22;11017;53.552;9.910;2023-02-27T13:54:18;19.70;58.10
21712;DHT22;11017;53.552;9.910;2023-02-27T13:56:47;19.00;58.70
21712;DHT22;11017;53.552;9.910;2023-02-27T13:59:19;18.60;59.60
21712;DHT22;11017;53.552;9.910;2023-02-27T14:01:50;18.50;59.30
21712;DHT22;11017;53.552;9.910;2023-02-27T14:04:19;18.10;59.10
21712;DHT22;11017;53.552;9.910;2023-02-27T14:06:47;17.80;59.70
21712;DHT22;11017;53.552;9.910;2023-02-27T14:09:19;17.60;60.40
21712;DHT22;11017;53.552;9.910;2023-02-27T14:11:52;17.20;60.90
21712;DHT22;11017;53.552;9.910;2023-02-27T14:14:49;16.80;61.70
21712;DHT22;11017;53.552;9.910;2023-02-27T14:17:39;17.00;61.70
21712;DHT22;11017;53.552;9.910;2023-02-27T14:20:11;17.20;61.70
21712;DHT22;11017;53.552;9.910;2023-02-27T14:25:30;16.60;62.60
21712;DHT22;11017;53.552;9.910;2023-02-27T14:27:58;16.10;63.50
21712;DHT22;11017;53.552;9.910;2023-02-27T14:30:33;15.70;64.30
21712;DHT22;11017;53.552;9.910;2023-02-27T14:33:10;15.30;64.70
21712;DHT22;11017;53.552;9.910;2023-02-27T14:35:38;14.40;65.20
21712;DHT22;11017;53.552;9.910;2023-02-27T14:38:12;13.60;66.70
21712;DHT22;11017;53.552;9.910;2023-02-27T14:40:52;13.40;67.30
21712;DHT22;11017;53.552;9.910;2023-02-27T14:43:31;13.20;68.50
21712;DHT22;11017;53.552;9.910;2023-02-27T14:46:06;12.80;68.90
21712;DHT22;11017;53.552;9.910;2023-02-27T14:48:37;12.60;69.10
21712;DHT22;11017;53.552;9.910;2023-02-27T14:51:05;12.70;70.10
21712;DHT22;11017;53.552;9.910;2023-02-27T14:53:32;12.60;70.10
21712;DHT22;11017;53.552;9.910;2023-02-27T14:56:00;12.40;70.80
21712;DHT22;11017;53.552;9.910;2023-02-27T14:58:27;11.90;71.60
21712;DHT22;11017;53.552;9.910;2023-02-27T15:01:02;11.50;72.70
21712;DHT22;11017;53.552;9.910;2023-02-27T15:03:37;11.10;73.20
21712;DHT22;11017;53.552;9.910;2023-02-27T15:06:14;11.00;74.20
21712;DHT22;11017;53.552;9.910;2023-02-27T15:08:45;11.00;74.00
21712;DHT22;11017;53.552;9.910;2023-02-27T15:11:16;10.80;75.00
21712;DHT22;11017;53.552;9.910;2023-02-27T15:13:44;10.70;74.30
21712;DHT22;11017;53.552;9.910;2023-02-27T15:16:36;10.60;75.00
21712;DHT22;11017;53.552;9.910;2023-02-27T15:19:12;10.40;77.10
21712;DHT22;11017;53.552;9.910;2023-02-27T15:21:42;10.40;76.00
21712;DHT22;11017;53.552;9.910;2023-02-27T15:24:25;10.60;75.40
21712;DHT22;11017;53.552;9.910;2023-02-27T15:26:56;10.60;76.20
21712;DHT22;11017;53.552;9.910;2023-02-27T15:29:27;10.40;76.40
21712;DHT22;11017;53.552;9.910;2023-02-27T15:31:55;10.20;77.10
21712;DHT22;11017;53.552;9.910;2023-02-27T15:34:22;10.00;77.60
21712;DHT22;11017;53.552;9.910;2023-02-27T15:36:51;9.80;79.30
21712;DHT22;11017;53.552;9.910;2023-02-27T15:39:20;10.10;78.60
21712;DHT22;11017;53.552;9.910;2023-02-27T15:41:50;10.10;78.70
21712;DHT22;11017;53.552;9.910;2023-02-27T15:44:22;10.00;79.40
21712;DHT22;11017;53.552;9.910;2023-02-27T15:46:50;9.80;81.20
21712;DHT22;11017;53.552;9.910;2023-02-27T15:49:20;9.60;81.80
21712;DHT22;11017;53.552;9.910;2023-02-27T15:51:59;9.60;82.40
21712;DHT22;11017;53.552;9.910;2023-02-27T15:54:31;9.60;82.90
21712;DHT22;11017;53.552;9.910;2023-02-27T15:56:59;9.50;83.60
21712;DHT22;11017;53.552;9.910;2023-02-27T15:59:29;9.40;84.00
21712;DHT22;11017;53.552;9.910;2023-02-27T16:01:58;9.40;84.60
21712;DHT22;11017;53.552;9.910;2023-02-27T16:04:28;9.30;84.90
21712;DHT22;11017;53.552;9.910;2023-02-27T16:07:00;9.30;85.40
21712;DHT22;11017;53.552;9.910;2023-02-27T16:09:29;9.30;85.80
21712;DHT22;11017;53.552;9.910;2023-02-27T16:12:18;9.40;85.70
21712;DHT22;11017;53.552;9.910;2023-02-27T16:14:49;9.30;85.50
21712;DHT22;11017;53.552;9.910;2023-02-27T16:17:23;9.20;86.30
21712;DHT22;11017;53.552;9.910;2023-02-27T16:19:51;9.10;87.10
21712;DHT22;11017;53.552;9.910;2023-02-27T16:22:19;9.10;87.60
21712;DHT22;11017;53.552;9.910;2023-02-27T16:24:47;9.20;87.60